createdAt,value
2023-04-05T11:50:26.318Z,99.90
2023-04-05T11:53:13.000Z,99.90
2023-04-05T11:55:41.918Z,99.90
2023-04-05T11:58:17.677Z,99.50
2023-04-05T12:00:45.891Z,99.20
2023-04-05T12:03:13.983Z,98.90
2023-04-05T12:05:54.032Z,99.30
2023-04-05T12:08:21.746Z,99.30
2023-04-05T12:11:01.080Z,99.40
2023-04-05T12:13:29.382Z,99.30
2023-04-05T12:16:04.763Z,97.90
2023-04-05T12:18:33.080Z,98.10
2023-04-05T12:21:08.182Z,98.80
2023-04-05T12:23:37.272Z,98.30
2023-04-05T12:26:06.145Z,98.10
2023-04-05T12:28:58.493Z,98.00
2023-04-05T12:31:44.241Z,98.80
2023-04-05T12:34:12.462Z,99.20
2023-04-05T12:36:43.177Z,99.30
2023-04-05T12:39:10.716Z,99.80
2023-04-05T12:41:37.971Z,99.90
2023-04-05T12:44:15.649Z,99.80
2023-04-05T12:46:44.243Z,98.30
2023-04-05T12:49:12.137Z,98.20
2023-04-05T12:51:43.798Z,98.80
2023-04-05T12:54:14.578Z,98.10
2023-04-05T12:56:42.236Z,98.10
2023-04-05T12:59:08.987Z,98.40
2023-04-05T13:01:35.766Z,99.70
2023-04-05T13:04:15.383Z,99.90
2023-04-05T13:06:43.753Z,98.10
2023-04-05T13:09:10.322Z,99.00
2023-04-05T13:11:36.821Z,99.30
2023-04-05T13:14:03.373Z,98.90
2023-04-05T13:16:30.006Z,99.20
2023-04-05T13:18:56.555Z,99.80
2023-04-05T13:21:23.051Z,99.00
2023-04-05T13:23:49.839Z,98.50
2023-04-05T13:26:16.402Z,98.20
2023-04-05T13:28:42.928Z,97.20
2023-04-05T13:31:09.692Z,97.50
2023-04-05T13:33:36.250Z,98.30
2023-04-05T13:36:02.875Z,97.50
2023-04-05T13:38:29.390Z,97.60
2023-04-05T13:40:55.939Z,97.40
2023-04-05T13:43:22.783Z,97.70
2023-04-05T13:45:49.564Z,97.90
2023-04-05T13:48:16.061Z,97.90
2023-04-05T13:50:42.819Z,98.40
2023-04-05T13:53:09.844Z,98.40
2023-04-05T13:55:36.853Z,98.40
2023-04-05T13:58:03.366Z,97.80
2023-04-05T14:00:29.926Z,98.30
2023-04-05T14:02:56.530Z,98.50
2023-04-05T14:05:23.132Z,99.00
2023-04-05T14:07:50.252Z,98.20
2023-04-05T14:10:17.633Z,98.30
2023-04-05T14:12:44.340Z,98.40
2023-04-05T14:15:11.470Z,98.90
2023-04-05T14:17:38.096Z,98.50
2023-04-05T14:20:05.068Z,98.60
2023-04-05T14:22:31.591Z,99.00
2023-04-05T14:24:58.149Z,99.50
2023-04-05T14:27:26.917Z,99.50
2023-04-05T14:29:56.867Z,99.00
2023-04-05T14:32:25.143Z,98.70
2023-04-05T14:34:51.677Z,99.20
2023-04-05T14:37:18.304Z,99.20
2023-04-05T14:39:44.801Z,99.30
2023-04-05T14:42:11.326Z,99.20
2023-04-05T14:44:37.825Z,99.40
2023-04-05T14:47:04.392Z,99.40
2023-04-05T14:49:30.981Z,99.30
2023-04-05T14:51:57.656Z,99.30
2023-04-05T14:54:24.217Z,98.80
2023-04-05T14:56:50.724Z,99.30
2023-04-05T14:59:17.212Z,98.80
2023-04-05T15:01:45.459Z,98.50
2023-04-05T15:04:12.171Z,98.60
2023-04-05T15:06:38.775Z,99.20
2023-04-05T15:09:05.726Z,99.20
2023-04-05T15:11:35.433Z,99.40
2023-04-05T15:14:01.985Z,98.80
2023-04-05T15:16:30.177Z,98.90
2023-04-05T15:18:58.920Z,98.90
2023-04-05T15:21:25.881Z,98.80
2023-04-05T15:23:52.373Z,98.70
2023-04-05T15:26:19.020Z,98.70
2023-04-05T15:28:45.906Z,99.10
2023-04-05T15:31:12.460Z,99.10
2023-04-05T15:33:39.097Z,99.40
2023-04-05T15:36:07.018Z,99.30
2023-04-05T15:38:33.584Z,98.70
2023-04-05T15:41:00.237Z,98.80
2023-04-05T15:43:27.088Z,99.00
2023-04-05T15:45:53.699Z,99.20
2023-04-05T15:48:20.431Z,99.40
2023-04-05T15:50:47.080Z,99.60
2023-04-05T15:53:13.608Z,99.70
2023-04-05T15:55:40.161Z,99.70
2023-04-05T15:58:07.600Z,99.60
2023-04-05T16:00:34.279Z,99.90
2023-04-05T16:03:01.243Z,99.90
2023-04-05T16:05:27.869Z,99.50
2023-04-05T16:07:54.459Z,99.90
2023-04-05T16:10:21.177Z,99.90
2023-04-05T16:12:47.782Z,99.90
2023-04-05T16:15:14.340Z,99.90
2023-04-05T16:17:41.144Z,99.90
2023-04-05T16:20:08.089Z,99.90
2023-04-05T16:22:34.599Z,99.90
2023-04-05T16:25:01.218Z,99.90
2023-04-05T16:27:28.009Z,99.90
2023-04-05T16:29:54.521Z,99.90
2023-04-05T16:32:21.261Z,99.90
2023-04-05T16:34:47.870Z,99.90
2023-04-05T16:37:14.393Z,99.90
2023-04-05T16:39:41.195Z,99.90
2023-04-05T16:42:07.932Z,99.90
2023-04-05T16:44:34.504Z,99.90
2023-04-05T16:47:01.049Z,99.90
2023-04-05T16:49:27.622Z,99.90
2023-04-05T16:51:54.529Z,99.90
2023-04-05T16:54:21.472Z,99.90
2023-04-05T16:56:48.009Z,99.90
2023-04-05T16:59:14.599Z,99.90
2023-04-05T17:01:41.360Z,99.90
2023-04-05T17:04:07.978Z,99.90
2023-04-05T17:06:34.511Z,99.90
2023-04-05T17:09:01.100Z,99.90
2023-04-05T17:11:28.337Z,99.90
2023-04-05T17:13:55.228Z,99.90
2023-04-05T17:16:21.980Z,99.90
2023-04-05T17:18:48.560Z,99.90
2023-04-05T17:21:15.233Z,99.90
2023-04-05T17:23:41.704Z,99.90
2023-04-05T17:26:08.523Z,99.90
2023-04-05T17:28:35.154Z,99.90
2023-04-05T17:31:03.291Z,99.90
2023-04-05T17:33:30.185Z,99.90
2023-04-05T17:35:58.010Z,99.90
2023-04-05T17:38:24.797Z,99.90
2023-04-05T17:40:52.144Z,99.90
2023-04-05T17:43:18.778Z,99.90
2023-04-05T17:45:45.518Z,99.90
2023-04-05T17:48:12.095Z,99.90
2023-04-05T17:50:38.720Z,99.90
2023-04-05T17:53:05.404Z,99.90
2023-04-05T17:55:34.789Z,99.90
2023-04-05T17:58:01.289Z,99.90
2023-04-05T18:00:27.930Z,99.90
2023-04-05T18:02:54.525Z,99.90
2023-04-05T18:05:21.300Z,99.90
2023-04-05T18:07:48.038Z,99.90
2023-04-05T18:10:14.635Z,99.90
2023-04-05T18:12:41.331Z,99.90
2023-04-05T18:15:08.364Z,99.90
2023-04-05T18:17:35.155Z,99.90
2023-04-05T18:20:01.665Z,99.90
2023-04-05T18:22:31.719Z,99.90
2023-04-05T18:24:58.303Z,99.90
2023-04-05T18:27:24.868Z,99.90
2023-04-05T18:29:51.469Z,99.90
2023-04-05T18:32:18.147Z,99.90
2023-04-05T18:34:45.780Z,99.90
2023-04-05T18:37:12.303Z,99.90
2023-04-05T18:39:38.811Z,99.90
2023-04-05T18:42:05.421Z,99.90
2023-04-05T18:44:32.221Z,99.90
2023-04-05T18:46:58.765Z,99.90
2023-04-05T18:49:25.428Z,99.90
2023-04-05T18:51:51.996Z,99.90
2023-04-05T18:54:18.758Z,99.90
2023-04-05T18:56:45.528Z,99.90
2023-04-05T18:59:12.634Z,99.90
2023-04-05T19:01:39.338Z,99.90
2023-04-05T19:04:06.709Z,99.90
2023-04-05T19:06:34.566Z,99.90
2023-04-05T19:09:02.142Z,99.90
2023-04-05T19:11:28.679Z,99.90
2023-04-05T19:13:55.459Z,99.90
2023-04-05T19:16:22.031Z,99.90
2023-04-05T19:18:48.541Z,99.90
2023-04-05T19:21:15.074Z,99.90
2023-04-05T19:23:41.921Z,99.90
2023-04-05T19:26:08.425Z,99.90
2023-04-05T19:28:34.936Z,99.90
2023-04-05T19:31:02.175Z,99.90
2023-04-05T19:33:31.513Z,99.90
2023-04-05T19:35:58.631Z,99.90
2023-04-05T19:38:25.538Z,99.90
2023-04-05T19:40:52.477Z,99.90
2023-04-05T19:43:19.005Z,99.90
